createdAt,value
2018-08-31T00:00:41.657Z,1010.3
2018-08-31T00:01:45.924Z,1010.4
2018-08-31T00:02:49.820Z,1010.3
2018-08-31T00:03:54.413Z,1010.4
2018-08-31T00:04:58.866Z,1010.4
2018-08-31T00:06:03.372Z,1010.4
2018-08-31T00:07:09.290Z,1010.4
2018-08-31T00:08:13.153Z,1010.4
2018-08-31T00:09:16.286Z,1010.4
2018-08-31T00:10:19.018Z,1010.4
2018-08-31T00:11:21.683Z,1010.4
2018-08-31T00:12:27.038Z,1010.5
2018-08-31T00:13:31.080Z,1010.5
2018-08-31T00:14:34.873Z,1010.5
2018-08-31T00:15:40.049Z,1010.4
2018-08-31T00:16:46.219Z,1010.5
2018-08-31T00:17:51.207Z,1010.4
2018-08-31T00:18:56.041Z,1010.5
2018-08-31T00:19:59.511Z,1010.5
2018-08-31T00:21:04.731Z,1010.4
2018-08-31T00:22:10.295Z,1010.4
2018-08-31T00:23:15.948Z,1010.5
2018-08-31T00:24:20.165Z,1010.4
2018-08-31T00:25:23.601Z,1010.5
2018-08-31T00:26:29.519Z,1010.4
2018-08-31T00:27:32.704Z,1010.4
2018-08-31T00:28:36.546Z,1010.4
2018-08-31T00:29:41.250Z,1010.4
2018-08-31T00:30:46.373Z,1010.4
2018-08-31T00:31:50.800Z,1010.4
2018-08-31T00:32:54.780Z,1010.4
2018-08-31T00:33:57.786Z,1010.4
2018-08-31T00:35:01.956Z,1010.3
2018-08-31T00:36:05.347Z,1010.4
2018-08-31T00:37:12.492Z,1010.4
2018-08-31T00:38:16.992Z,1010.4
2018-08-31T00:39:20.058Z,1010.4
2018-08-31T00:40:24.537Z,1010.4
2018-08-31T00:41:27.781Z,1010.3
2018-08-31T00:42:32.390Z,1010.4
2018-08-31T00:43:35.322Z,1010.4
2018-08-31T00:44:39.063Z,1010.4
2018-08-31T00:45:42.702Z,1010.4
2018-08-31T00:46:46.113Z,1010.3
2018-08-31T00:47:49.889Z,1010.4
2018-08-31T00:48:54.129Z,1010.4
2018-08-31T00:49:56.721Z,1010.4
2018-08-31T00:51:01.812Z,1010.4
2018-08-31T00:52:06.103Z,1010.4
2018-08-31T00:53:12.510Z,1010.4
2018-08-31T00:54:16.448Z,1010.4
2018-08-31T00:55:19.541Z,1010.4
2018-08-31T00:56:25.527Z,1010.4
2018-08-31T00:57:29.514Z,1010.4
2018-08-31T00:58:32.216Z,1010.4
2018-08-31T00:59:38.551Z,1010.4
2018-08-31T01:00:44.268Z,1010.4
2018-08-31T01:01:51.191Z,1010.5
2018-08-31T01:02:55.931Z,1010.4
2018-08-31T01:04:00.092Z,1010.4
2018-08-31T01:05:04.783Z,1010.4
2018-08-31T01:06:09.485Z,1010.4
2018-08-31T01:07:12.979Z,1010.4
2018-08-31T01:08:20.369Z,1010.4
2018-08-31T01:09:26.448Z,1010.4
2018-08-31T01:10:30.609Z,1010.5
2018-08-31T01:11:35.665Z,1010.5
2018-08-31T01:12:39.547Z,1010.5
2018-08-31T01:13:45.011Z,1010.5
2018-08-31T01:14:49.029Z,1010.4
2018-08-31T01:15:53.353Z,1010.5
2018-08-31T01:16:59.208Z,1010.4
2018-08-31T01:18:03.352Z,1010.4
2018-08-31T01:19:09.290Z,1010.4
2018-08-31T01:20:13.389Z,1010.4
2018-08-31T01:21:17.060Z,1010.4
2018-08-31T01:22:21.322Z,1010.4
2018-08-31T01:23:25.753Z,1010.4
2018-08-31T01:24:29.706Z,1010.4
2018-08-31T01:25:34.253Z,1010.4
2018-08-31T01:26:38.873Z,1010.4
2018-08-31T01:27:43.090Z,1010.4
2018-08-31T01:28:48.015Z,1010.4
2018-08-31T01:29:52.377Z,1010.4
2018-08-31T01:30:56.923Z,1010.4
2018-08-31T01:32:02.774Z,1010.4
2018-08-31T01:33:06.489Z,1010.4
2018-08-31T01:34:11.929Z,1010.5
2018-08-31T01:35:17.939Z,1010.4
2018-08-31T01:36:21.984Z,1010.4
2018-08-31T01:37:27.246Z,1010.5
2018-08-31T01:38:30.848Z,1010.5
2018-08-31T01:39:34.252Z,1010.4
2018-08-31T01:40:37.943Z,1010.5
2018-08-31T01:41:41.213Z,1010.5
2018-08-31T01:42:44.603Z,1010.5
2018-08-31T01:43:49.224Z,1010.5
2018-08-31T01:44:54.472Z,1010.5
2018-08-31T01:46:01.295Z,1010.5
2018-08-31T01:47:05.236Z,1010.5
2018-08-31T01:48:08.956Z,1010.5
2018-08-31T01:49:14.008Z,1010.5
2018-08-31T01:50:19.790Z,1010.5
2018-08-31T01:51:25.138Z,1010.5
2018-08-31T01:52:29.913Z,1010.5
2018-08-31T01:53:33.600Z,1010.5
2018-08-31T01:54:37.416Z,1010.5
2018-08-31T01:55:43.087Z,1010.5
2018-08-31T01:56:47.715Z,1010.5
2018-08-31T01:57:52.979Z,1010.5
2018-08-31T01:58:59.571Z,1010.5
2018-08-31T02:00:04.685Z,1010.5
2018-08-31T02:01:07.717Z,1010.5
2018-08-31T02:02:11.491Z,1010.5
2018-08-31T02:03:15.626Z,1010.5
2018-08-31T02:04:20.659Z,1010.5
2018-08-31T02:05:26.177Z,1010.6
2018-08-31T02:06:30.604Z,1010.6
2018-08-31T02:07:35.032Z,1010.6
2018-08-31T02:08:38.628Z,1010.6
2018-08-31T02:09:44.513Z,1010.6
2018-08-31T02:10:48.118Z,1010.6
2018-08-31T02:11:52.552Z,1010.6
2018-08-31T02:12:56.869Z,1010.6
2018-08-31T02:14:02.036Z,1010.6
2018-08-31T02:15:06.362Z,1010.6
2018-08-31T02:16:09.011Z,1010.7
2018-08-31T02:17:13.740Z,1010.7
2018-08-31T02:18:17.882Z,1010.7
2018-08-31T02:19:21.809Z,1010.7
2018-08-31T02:20:26.981Z,1010.7
2018-08-31T02:21:31.812Z,1010.7
2018-08-31T02:22:35.471Z,1010.7
2018-08-31T02:23:39.526Z,1010.7
2018-08-31T02:24:46.810Z,1010.7
2018-08-31T02:25:53.007Z,1010.7
2018-08-31T02:26:56.968Z,1010.7
2018-08-31T02:28:02.282Z,1010.7
2018-08-31T02:29:07.632Z,1010.7
2018-08-31T02:30:12.012Z,1010.7
2018-08-31T02:31:17.696Z,1010.7
2018-08-31T02:32:22.742Z,1010.7
2018-08-31T02:33:28.712Z,1010.6
2018-08-31T02:34:32.506Z,1010.7
2018-08-31T02:35:38.874Z,1010.7
2018-08-31T02:36:45.399Z,1010.6
2018-08-31T02:37:51.625Z,1010.7
2018-08-31T02:38:56.081Z,1010.6
2018-08-31T02:40:00.105Z,1010.6
2018-08-31T02:41:04.434Z,1010.6
2018-08-31T02:42:08.028Z,1010.6
2018-08-31T02:43:12.840Z,1010.6
2018-08-31T02:44:18.849Z,1010.6
2018-08-31T02:45:23.426Z,1010.6
2018-08-31T02:46:26.808Z,1010.6
2018-08-31T02:47:31.947Z,1010.6
2018-08-31T02:48:38.449Z,1010.6
2018-08-31T02:49:42.605Z,1010.6
2018-08-31T02:50:46.909Z,1010.6
2018-08-31T02:51:50.845Z,1010.7
2018-08-31T02:52:57.389Z,1010.6
2018-08-31T02:54:02.901Z,1010.6
2018-08-31T02:55:06.549Z,1010.6
2018-08-31T02:56:11.256Z,1010.6
2018-08-31T02:57:17.110Z,1010.6
2018-08-31T02:58:20.718Z,1010.6
2018-08-31T02:59:24.248Z,1010.6
2018-08-31T03:00:29.555Z,1010.5
2018-08-31T03:01:36.010Z,1010.5
2018-08-31T03:02:43.152Z,1010.6
2018-08-31T03:03:48.393Z,1010.5
2018-08-31T03:04:52.537Z,1010.5
2018-08-31T03:05:58.004Z,1010.6
2018-08-31T03:07:03.041Z,1010.5
2018-08-31T03:08:06.629Z,1010.5
2018-08-31T03:09:10.243Z,1010.5
2018-08-31T03:10:14.031Z,1010.5
2018-08-31T03:11:18.883Z,1010.5
2018-08-31T03:12:22.983Z,1010.5
2018-08-31T03:13:28.869Z,1010.5
2018-08-31T03:14:34.288Z,1010.5
2018-08-31T03:15:40.693Z,1010.5
2018-08-31T03:16:44.990Z,1010.6
2018-08-31T03:17:51.394Z,1010.5
2018-08-31T03:18:56.519Z,1010.5
2018-08-31T03:20:01.580Z,1010.5
2018-08-31T03:21:07.744Z,1010.5
2018-08-31T03:22:14.537Z,1010.6
2018-08-31T03:23:20.632Z,1010.5
2018-08-31T03:24:27.310Z,1010.6
2018-08-31T03:25:33.401Z,1010.5
2018-08-31T03:26:39.021Z,1010.5
2018-08-31T03:27:45.420Z,1010.5
2018-08-31T03:28:51.217Z,1010.6
2018-08-31T03:29:54.985Z,1010.5
2018-08-31T03:31:00.453Z,1010.5
2018-08-31T03:32:05.287Z,1010.6
2018-08-31T03:33:09.651Z,1010.6
2018-08-31T03:34:15.214Z,1010.5
2018-08-31T03:35:20.289Z,1010.6
2018-08-31T03:36:24.636Z,1010.5
2018-08-31T03:37:30.140Z,1010.6
2018-08-31T03:38:35.435Z,1010.6
2018-08-31T03:39:39.726Z,1010.6
2018-08-31T03:40:45.067Z,1010.7
2018-08-31T03:41:50.488Z,1010.7
2018-08-31T03:42:55.572Z,1010.7
2018-08-31T03:43:59.436Z,1010.7
2018-08-31T03:45:04.257Z,1010.7
2018-08-31T03:46:08.595Z,1010.7
2018-08-31T03:47:14.465Z,1010.7
2018-08-31T03:48:19.881Z,1010.7
2018-08-31T03:49:23.665Z,1010.7
2018-08-31T03:50:27.045Z,1010.7
2018-08-31T03:51:30.030Z,1010.7
2018-08-31T03:52:33.947Z,1010.7
2018-08-31T03:53:37.260Z,1010.7
2018-08-31T03:54:42.056Z,1010.8
2018-08-31T03:55:46.422Z,1010.7
2018-08-31T03:56:51.685Z,1010.8
2018-08-31T03:57:55.115Z,1010.8
2018-08-31T03:58:59.268Z,1010.8
2018-08-31T04:00:02.591Z,1010.8
2018-08-31T04:01:07.616Z,1010.9
2018-08-31T04:02:13.339Z,1010.8
2018-08-31T04:03:17.818Z,1010.8
2018-08-31T04:04:21.665Z,1010.8
2018-08-31T04:05:25.689Z,1010.8
2018-08-31T04:08:04.503Z,1010.8
2018-08-31T04:09:08.274Z,1010.8
2018-08-31T04:10:13.059Z,1010.8
2018-08-31T04:11:18.213Z,1010.9
2018-08-31T04:12:22.989Z,1010.9
2018-08-31T04:13:27.318Z,1010.9
2018-08-31T04:14:32.185Z,1010.9
2018-08-31T04:15:36.676Z,1010.9
2018-08-31T04:16:41.055Z,1010.8
2018-08-31T04:17:44.504Z,1010.9
2018-08-31T04:18:47.273Z,1011
2018-08-31T04:19:50.085Z,1010.9
2018-08-31T04:20:53.467Z,1010.9
2018-08-31T04:21:58.109Z,1010.9
2018-08-31T04:23:03.541Z,1010.9
2018-08-31T04:24:09.578Z,1010.9
2018-08-31T04:25:14.110Z,1010.9
2018-08-31T04:26:18.159Z,1011
2018-08-31T04:27:21.782Z,1011
2018-08-31T04:28:25.745Z,1011
2018-08-31T04:29:28.934Z,1011
2018-08-31T04:30:32.807Z,1011
2018-08-31T04:31:36.331Z,1011
2018-08-31T04:32:40.424Z,1011
2018-08-31T04:33:45.500Z,1011.1
2018-08-31T04:34:51.777Z,1011.1
2018-08-31T04:35:55.115Z,1011.1
2018-08-31T04:36:57.984Z,1011
2018-08-31T04:38:00.396Z,1011
2018-08-31T04:39:05.472Z,1011
2018-08-31T04:40:09.215Z,1011
2018-08-31T04:41:13.985Z,1011.1
2018-08-31T04:42:19.604Z,1011.1
2018-08-31T04:43:22.132Z,1011
2018-08-31T04:44:24.904Z,1011.1
2018-08-31T04:45:29.609Z,1011.2
2018-08-31T04:46:33.728Z,1011.1
2018-08-31T04:47:36.115Z,1011.1
2018-08-31T04:48:39.629Z,1011.2
2018-08-31T04:49:44.945Z,1011.1
2018-08-31T04:50:49.242Z,1011.1
2018-08-31T04:51:53.624Z,1011.2
2018-08-31T04:52:57.647Z,1011.1
2018-08-31T04:54:01.899Z,1011.2
2018-08-31T04:55:06.880Z,1011.1
2018-08-31T04:56:12.910Z,1011.2
2018-08-31T04:57:16.785Z,1011.2
2018-08-31T04:58:22.707Z,1011.2
2018-08-31T04:59:28.692Z,1011.1
2018-08-31T05:00:32.798Z,1011.1
2018-08-31T05:01:36.951Z,1011.2
2018-08-31T05:02:42.637Z,1011.2
2018-08-31T05:03:46.748Z,1011.1
2018-08-31T05:04:50.181Z,1011.1
2018-08-31T05:05:55.416Z,1011.1
2018-08-31T05:06:59.262Z,1011.2
2018-08-31T05:08:03.455Z,1011.1
2018-08-31T05:09:08.633Z,1011.1
2018-08-31T05:10:14.550Z,1011.1
2018-08-31T05:11:20.610Z,1011.1
2018-08-31T05:12:25.152Z,1011.2
2018-08-31T05:13:30.003Z,1011.1
2018-08-31T05:14:35.558Z,1011.2
2018-08-31T05:15:40.659Z,1011.1
2018-08-31T05:16:47.149Z,1011.1
2018-08-31T05:17:51.576Z,1011.1
2018-08-31T05:18:54.982Z,1011.1
2018-08-31T05:19:59.772Z,1011.1
2018-08-31T05:21:02.791Z,1011.1
2018-08-31T05:22:08.639Z,1011.2
2018-08-31T05:23:11.664Z,1011.1
2018-08-31T05:24:16.547Z,1011.1
2018-08-31T05:25:22.604Z,1011.2
2018-08-31T05:26:27.429Z,1011.2
2018-08-31T05:27:30.132Z,1011.2
2018-08-31T05:28:36.009Z,1011.3
2018-08-31T05:29:39.979Z,1011.3
2018-08-31T05:30:44.104Z,1011.3
2018-08-31T05:31:49.153Z,1011.3
2018-08-31T05:32:55.418Z,1011.3
2018-08-31T05:33:59.711Z,1011.2
2018-08-31T05:35:03.038Z,1011.3
2018-08-31T05:36:05.841Z,1011.2
2018-08-31T05:37:08.119Z,1011.2
2018-08-31T05:38:11.232Z,1011.2
2018-08-31T05:39:14.423Z,1011.2
2018-08-31T05:40:18.992Z,1011.2
2018-08-31T05:41:22.477Z,1011.1
2018-08-31T05:42:26.570Z,1011.2
2018-08-31T05:43:30.092Z,1011.1
2018-08-31T05:44:34.212Z,1011.2
2018-08-31T05:45:37.401Z,1011.2
2018-08-31T05:46:40.520Z,1011.1
2018-08-31T05:47:44.028Z,1011.2
2018-08-31T05:48:46.743Z,1011.2
2018-08-31T05:49:50.070Z,1011.2
2018-08-31T05:50:53.844Z,1011.2
2018-08-31T05:51:57.359Z,1011.2
2018-08-31T05:53:00.901Z,1011.2
2018-08-31T05:54:03.941Z,1011.2
2018-08-31T05:55:07.150Z,1011.2
2018-08-31T05:56:10.012Z,1011.2
2018-08-31T05:57:13.752Z,1011.2
2018-08-31T05:58:16.547Z,1011.2
2018-08-31T05:59:19.702Z,1011.2
2018-08-31T06:00:23.767Z,1011.2
2018-08-31T06:01:28.602Z,1011.2
2018-08-31T06:02:31.979Z,1011.2
2018-08-31T06:03:34.972Z,1011.2
2018-08-31T06:04:37.685Z,1011.2
2018-08-31T06:05:41.157Z,1011.3
2018-08-31T06:06:45.749Z,1011.3
2018-08-31T06:07:49.137Z,1011.3
2018-08-31T06:08:52.363Z,1011.3
2018-08-31T06:09:54.913Z,1011.2
2018-08-31T06:10:57.924Z,1011.3
2018-08-31T06:12:00.809Z,1011.2
2018-08-31T06:13:03.629Z,1011.3
2018-08-31T06:14:06.547Z,1011.3
2018-08-31T06:15:09.203Z,1011.3
2018-08-31T06:16:12.950Z,1011.3
2018-08-31T06:17:16.306Z,1011.3
2018-08-31T06:18:21.186Z,1011.3
2018-08-31T06:19:24.516Z,1011.4
2018-08-31T06:20:29.212Z,1011.4
2018-08-31T06:21:33.370Z,1011.3
2018-08-31T06:22:37.500Z,1011.4
2018-08-31T06:23:40.595Z,1011.4
2018-08-31T06:24:43.671Z,1011.4
2018-08-31T06:25:46.564Z,1011.4
2018-08-31T06:26:50.217Z,1011.4
2018-08-31T06:27:53.920Z,1011.4
2018-08-31T06:28:57.472Z,1011.4
2018-08-31T06:30:00.291Z,1011.5
2018-08-31T06:31:04.271Z,1011.4
2018-08-31T06:32:07.568Z,1011.4
2018-08-31T06:33:10.456Z,1011.5
2018-08-31T06:34:12.936Z,1011.5
2018-08-31T06:35:15.938Z,1011.5
2018-08-31T06:36:18.485Z,1011.5
2018-08-31T06:37:21.085Z,1011.5
2018-08-31T06:38:25.204Z,1011.6
2018-08-31T06:39:28.418Z,1011.5
2018-08-31T06:40:31.154Z,1011.5
2018-08-31T06:41:33.493Z,1011.5
2018-08-31T06:42:36.971Z,1011.5
2018-08-31T06:43:40.013Z,1011.6
2018-08-31T06:44:43.121Z,1011.6
2018-08-31T06:45:45.503Z,1011.6
2018-08-31T06:46:49.028Z,1011.6
2018-08-31T06:47:51.281Z,1011.7
2018-08-31T06:48:53.737Z,1011.7
2018-08-31T06:49:56.805Z,1011.6
2018-08-31T06:50:59.392Z,1011.6
2018-08-31T06:52:02.190Z,1011.7
2018-08-31T06:53:05.009Z,1011.7
2018-08-31T06:54:08.352Z,1011.7
2018-08-31T06:55:10.731Z,1011.6
2018-08-31T06:56:13.653Z,1011.7
2018-08-31T06:57:16.047Z,1011.7
2018-08-31T06:58:18.961Z,1011.7
2018-08-31T06:59:21.332Z,1011.7
2018-08-31T07:00:24.528Z,1011.7
2018-08-31T07:01:29.058Z,1011.7
2018-08-31T07:02:31.788Z,1011.8
2018-08-31T07:03:35.236Z,1011.8
2018-08-31T07:04:39.233Z,1011.8
2018-08-31T07:05:41.672Z,1011.8
2018-08-31T07:06:44.460Z,1011.8
2018-08-31T07:07:47.412Z,1011.8
2018-08-31T07:08:49.632Z,1011.7
2018-08-31T07:09:52.060Z,1011.8
2018-08-31T07:10:55.206Z,1011.8
2018-08-31T07:11:57.362Z,1011.8
2018-08-31T07:12:59.448Z,1011.8
2018-08-31T07:14:01.555Z,1011.8
2018-08-31T07:15:03.645Z,1011.8
2018-08-31T07:16:05.741Z,1011.7
2018-08-31T07:17:07.850Z,1011.7
2018-08-31T07:18:09.947Z,1011.7
2018-08-31T07:19:12.049Z,1011.7
2018-08-31T07:20:14.565Z,1011.7
2018-08-31T07:21:16.783Z,1011.8
2018-08-31T07:22:18.880Z,1011.8
2018-08-31T07:23:20.991Z,1011.7
2018-08-31T07:24:23.367Z,1011.7
2018-08-31T07:25:25.469Z,1011.8
2018-08-31T07:26:27.719Z,1011.7
2018-08-31T07:27:30.160Z,1011.7
2018-08-31T07:28:32.248Z,1011.8
2018-08-31T07:29:34.357Z,1011.9
2018-08-31T07:30:36.457Z,1011.8
2018-08-31T07:31:38.548Z,1011.9
2018-08-31T07:32:40.669Z,1011.9
2018-08-31T07:33:42.757Z,1011.8
2018-08-31T07:34:44.862Z,1011.9
2018-08-31T07:35:47.007Z,1011.9
2018-08-31T07:36:49.065Z,1011.9
2018-08-31T07:37:51.157Z,1011.8
2018-08-31T07:38:53.263Z,1011.8
2018-08-31T07:39:55.370Z,1011.8
2018-08-31T07:40:57.460Z,1011.8
2018-08-31T07:41:59.571Z,1011.9
2018-08-31T07:43:02.066Z,1011.8
2018-08-31T07:44:04.162Z,1011.9
2018-08-31T07:45:06.555Z,1011.9
2018-08-31T07:46:08.662Z,1011.9
2018-08-31T07:47:10.759Z,1011.9
2018-08-31T07:48:13.250Z,1012
2018-08-31T07:49:15.347Z,1011.9
2018-08-31T07:50:17.839Z,1011.9
2018-08-31T07:51:19.936Z,1011.9
2018-08-31T07:52:22.043Z,1011.9
2018-08-31T07:53:24.828Z,1011.9
2018-08-31T07:54:26.935Z,1011.9
2018-08-31T07:55:29.039Z,1011.9
2018-08-31T07:56:31.133Z,1011.8
2018-08-31T07:57:33.248Z,1011.8
2018-08-31T07:58:35.735Z,1011.9
2018-08-31T07:59:37.835Z,1011.8
2018-08-31T08:00:39.928Z,1011.9
2018-08-31T08:01:42.033Z,1011.9
2018-08-31T08:02:44.137Z,1011.9
2018-08-31T08:03:46.239Z,1011.9
2018-08-31T08:04:48.331Z,1011.8
2018-08-31T08:05:50.764Z,1011.8
2018-08-31T08:06:52.861Z,1011.9
2018-08-31T08:07:54.966Z,1011.8
2018-08-31T08:08:57.461Z,1011.9
2018-08-31T08:09:59.572Z,1011.9
2018-08-31T08:11:01.667Z,1011.8
2018-08-31T08:12:03.777Z,1011.8
2018-08-31T08:13:05.884Z,1011.8
2018-08-31T08:14:07.982Z,1011.8
2018-08-31T08:15:10.091Z,1011.9
2018-08-31T08:16:12.505Z,1011.9
2018-08-31T08:17:14.889Z,1011.9
2018-08-31T08:18:16.992Z,1011.9
2018-08-31T08:19:19.105Z,1011.9
2018-08-31T08:20:21.197Z,1011.9
2018-08-31T08:21:23.605Z,1011.9
2018-08-31T08:22:26.028Z,1012
2018-08-31T08:23:28.120Z,1012
2018-08-31T08:24:30.230Z,1011.9
2018-08-31T08:25:32.343Z,1012
2018-08-31T08:26:34.432Z,1012
2018-08-31T08:27:36.562Z,1011.9
2018-08-31T08:28:38.643Z,1012
2018-08-31T08:29:40.734Z,1011.9
2018-08-31T08:30:42.849Z,1012
2018-08-31T08:31:44.945Z,1012
2018-08-31T08:32:47.046Z,1012
2018-08-31T08:33:49.527Z,1012
2018-08-31T08:34:51.641Z,1012
2018-08-31T08:35:53.799Z,1012.1
2018-08-31T08:36:55.836Z,1012
2018-08-31T08:37:58.344Z,1012.1
2018-08-31T08:39:00.445Z,1012.1
2018-08-31T08:40:02.533Z,1012.1
2018-08-31T08:41:05.026Z,1012.1
2018-08-31T08:42:07.528Z,1012.2
2018-08-31T08:43:09.528Z,1012.2
2018-08-31T08:44:11.932Z,1012.2
2018-08-31T08:45:14.040Z,1012.2
2018-08-31T08:46:16.148Z,1012.2
2018-08-31T08:47:18.238Z,1012.2
2018-08-31T08:48:20.465Z,1012.1
2018-08-31T08:49:22.840Z,1012.2
2018-08-31T08:50:25.515Z,1012.1
2018-08-31T08:51:27.620Z,1012.2
2018-08-31T08:52:29.899Z,1012.2
2018-08-31T08:53:32.742Z,1012.1
2018-08-31T08:54:34.861Z,1012.2
2018-08-31T08:55:36.961Z,1012.2
2018-08-31T08:56:50.118Z,1012.2
2018-08-31T08:57:52.633Z,1012.2
2018-08-31T08:58:58.124Z,1012.3
2018-08-31T09:00:00.213Z,1012.2
2018-08-31T09:01:02.317Z,1012.3
2018-08-31T09:02:04.425Z,1012.2
2018-08-31T09:03:06.811Z,1012.3
2018-08-31T09:04:09.319Z,1012.3
2018-08-31T09:05:11.420Z,1012.3
2018-08-31T09:06:13.527Z,1012.3
2018-08-31T09:07:16.020Z,1012.3
2018-08-31T09:08:18.433Z,1012.2
2018-08-31T09:09:20.533Z,1012.2
2018-08-31T09:10:22.639Z,1012.2
2018-08-31T09:11:24.759Z,1012.3
2018-08-31T09:12:27.032Z,1012.3
2018-08-31T09:13:28.971Z,1012.3
2018-08-31T09:14:31.075Z,1012.3
2018-08-31T09:15:33.184Z,1012.3
2018-08-31T09:16:35.275Z,1012.3
2018-08-31T09:17:37.679Z,1012.3
2018-08-31T09:18:39.789Z,1012.3
2018-08-31T09:19:42.192Z,1012.4
2018-08-31T09:20:44.622Z,1012.4
2018-08-31T09:21:46.741Z,1012.3
2018-08-31T09:22:48.848Z,1012.3
2018-08-31T09:23:50.943Z,1012.3
2018-08-31T09:24:53.050Z,1012.4
2018-08-31T09:25:55.941Z,1012.3
2018-08-31T09:26:58.334Z,1012.4
2018-08-31T09:28:00.450Z,1012.4
2018-08-31T09:29:02.560Z,1012.4
2018-08-31T09:30:04.949Z,1012.4
2018-08-31T09:31:07.052Z,1012.4
2018-08-31T09:32:09.494Z,1012.4
2018-08-31T09:33:11.589Z,1012.4
2018-08-31T09:34:13.742Z,1012.3
2018-08-31T09:35:16.108Z,1012.4
2018-08-31T09:36:18.202Z,1012.4
2018-08-31T09:37:20.319Z,1012.4
2018-08-31T09:38:22.765Z,1012.4
2018-08-31T09:39:25.740Z,1012.3
2018-08-31T09:40:27.838Z,1012.3
2018-08-31T09:41:29.954Z,1012.4
2018-08-31T09:42:32.050Z,1012.3
2018-08-31T09:43:34.445Z,1012.3
2018-08-31T09:44:36.847Z,1012.4
2018-08-31T09:45:38.937Z,1012.4
2018-08-31T09:46:41.059Z,1012.4
2018-08-31T09:47:43.161Z,1012.4
2018-08-31T09:48:45.272Z,1012.4
2018-08-31T09:49:47.765Z,1012.4
2018-08-31T09:50:49.769Z,1012.4
2018-08-31T09:51:51.868Z,1012.4
2018-08-31T09:52:54.363Z,1012.4
2018-08-31T09:53:56.868Z,1012.4
2018-08-31T09:54:58.965Z,1012.4
2018-08-31T09:56:01.068Z,1012.4
2018-08-31T09:57:03.185Z,1012.4
2018-08-31T09:58:05.580Z,1012.4
2018-08-31T09:59:08.281Z,1012.4
2018-08-31T10:00:10.389Z,1012.3
2018-08-31T10:01:12.480Z,1012.4
2018-08-31T10:02:14.586Z,1012.4
2018-08-31T10:03:16.706Z,1012.3
2018-08-31T10:04:18.809Z,1012.3
2018-08-31T10:05:21.302Z,1012.4
2018-08-31T10:06:23.707Z,1012.4
2018-08-31T10:07:25.808Z,1012.5
2018-08-31T10:08:27.902Z,1012.4
2018-08-31T10:09:30.023Z,1012.5
2018-08-31T10:10:32.112Z,1012.5
2018-08-31T10:11:34.221Z,1012.5
2018-08-31T10:12:36.332Z,1012.4
2018-08-31T10:13:38.448Z,1012.4
2018-08-31T10:14:40.541Z,1012.4
2018-08-31T10:15:42.659Z,1012.4
2018-08-31T10:16:44.764Z,1012.5
2018-08-31T10:17:46.865Z,1012.4
2018-08-31T10:18:49.114Z,1012.4
2018-08-31T10:19:51.083Z,1012.5
2018-08-31T10:20:53.196Z,1012.5
2018-08-31T10:21:55.591Z,1012.4
2018-08-31T10:22:57.712Z,1012.5
2018-08-31T10:23:59.810Z,1012.4
2018-08-31T10:25:02.505Z,1012.4
2018-08-31T10:26:04.908Z,1012.4
2018-08-31T10:27:07.395Z,1012.5
2018-08-31T10:28:09.517Z,1012.4
2018-08-31T10:29:11.619Z,1012.4
2018-08-31T10:30:13.812Z,1012.5
2018-08-31T10:31:15.828Z,1012.4
2018-08-31T10:32:18.335Z,1012.4
2018-08-31T10:33:20.438Z,1012.3
2018-08-31T10:34:22.541Z,1012.4
2018-08-31T10:35:24.961Z,1012.4
2018-08-31T10:36:27.080Z,1012.4
2018-08-31T10:37:29.190Z,1012.5
2018-08-31T10:38:31.580Z,1012.4
2018-08-31T10:39:33.697Z,1012.4
2018-08-31T10:40:35.798Z,1012.4
2018-08-31T10:41:37.905Z,1012.4
2018-08-31T10:42:40.024Z,1012.5
2018-08-31T10:43:42.123Z,1012.5
2018-08-31T10:44:44.549Z,1012.5
2018-08-31T10:45:46.652Z,1012.5
2018-08-31T10:46:49.074Z,1012.4
2018-08-31T10:47:51.455Z,1012.5
2018-08-31T10:48:53.573Z,1012.4
2018-08-31T10:49:56.072Z,1012.5
2018-08-31T10:50:58.174Z,1012.4
2018-08-31T10:52:00.298Z,1012.5
2018-08-31T10:53:02.389Z,1012.4
2018-08-31T10:54:04.499Z,1012.4
2018-08-31T10:55:06.599Z,1012.5
2018-08-31T10:56:08.722Z,1012.4
2018-08-31T10:57:10.811Z,1012.4
2018-08-31T10:58:12.927Z,1012.4
2018-08-31T10:59:15.044Z,1012.4
2018-08-31T11:00:17.138Z,1012.4
2018-08-31T11:01:19.260Z,1012.4
2018-08-31T11:02:21.369Z,1012.4
2018-08-31T11:03:23.472Z,1012.4
2018-08-31T11:04:25.597Z,1012.4
2018-08-31T11:05:27.714Z,1012.4
2018-08-31T11:06:29.819Z,1012.4
2018-08-31T11:07:32.344Z,1012.4
2018-08-31T11:08:34.453Z,1012.4
2018-08-31T11:09:36.568Z,1012.4
2018-08-31T11:10:38.692Z,1012.4
2018-08-31T11:11:40.790Z,1012.4
2018-08-31T11:12:42.953Z,1012.4
2018-08-31T11:13:45.435Z,1012.4
2018-08-31T11:14:47.539Z,1012.4
2018-08-31T11:15:49.661Z,1012.4
2018-08-31T11:16:52.047Z,1012.4
2018-08-31T11:17:54.164Z,1012.4
2018-08-31T11:18:56.369Z,1012.4
2018-08-31T11:19:58.804Z,1012.4
2018-08-31T11:21:00.901Z,1012.4
2018-08-31T11:22:03.022Z,1012.4
2018-08-31T11:23:05.137Z,1012.4
2018-08-31T11:24:07.816Z,1012.4
2018-08-31T11:25:09.950Z,1012.4
2018-08-31T11:26:12.719Z,1012.4
2018-08-31T11:27:14.826Z,1012.4
2018-08-31T11:28:16.930Z,1012.3
2018-08-31T11:29:19.050Z,1012.3
2018-08-31T11:30:21.153Z,1012.3
2018-08-31T11:31:23.661Z,1012.3
2018-08-31T11:32:25.774Z,1012.3
2018-08-31T11:33:27.870Z,1012.3
2018-08-31T11:34:29.988Z,1012.4
2018-08-31T11:35:32.093Z,1012.4
2018-08-31T11:36:34.198Z,1012.3
2018-08-31T11:37:36.305Z,1012.3
2018-08-31T11:38:38.837Z,1012.3
2018-08-31T11:39:40.939Z,1012.4
2018-08-31T11:40:43.061Z,1012.4
2018-08-31T11:41:45.456Z,1012.3
2018-08-31T11:42:47.553Z,1012.4
2018-08-31T11:43:49.668Z,1012.5
2018-08-31T11:44:51.778Z,1012.4
2018-08-31T11:45:54.170Z,1012.4
2018-08-31T11:46:56.286Z,1012.4
2018-08-31T11:47:58.399Z,1012.4
2018-08-31T11:49:00.512Z,1012.3
2018-08-31T11:50:02.603Z,1012.4
2018-08-31T11:51:05.027Z,1012.4
2018-08-31T11:52:07.135Z,1012.4
2018-08-31T11:53:09.247Z,1012.4
2018-08-31T11:54:11.632Z,1012.4
2018-08-31T11:55:13.770Z,1012.4
2018-08-31T11:56:16.596Z,1012.4
2018-08-31T11:57:18.727Z,1012.4
2018-08-31T11:58:20.850Z,1012.5
2018-08-31T11:59:22.948Z,1012.4
2018-08-31T12:00:25.453Z,1012.4
2018-08-31T12:01:27.733Z,1012.4
2018-08-31T12:02:30.164Z,1012.4
2018-08-31T12:03:32.263Z,1012.4
2018-08-31T12:04:34.375Z,1012.4
2018-08-31T12:05:36.506Z,1012.3
2018-08-31T12:06:38.595Z,1012.3
2018-08-31T12:07:40.721Z,1012.3
2018-08-31T12:08:43.270Z,1012.4
2018-08-31T12:09:45.373Z,1012.3
2018-08-31T12:10:47.494Z,1012.4
2018-08-31T12:11:49.609Z,1012.3
2018-08-31T12:12:51.712Z,1012.4
2018-08-31T12:13:53.828Z,1012.3
2018-08-31T12:14:55.936Z,1012.4
2018-08-31T12:15:58.331Z,1012.4
2018-08-31T12:17:00.828Z,1012.4
2018-08-31T12:18:02.939Z,1012.4
2018-08-31T12:19:05.332Z,1012.4
2018-08-31T12:20:07.445Z,1012.4
2018-08-31T12:21:09.935Z,1012.4
2018-08-31T12:22:12.016Z,1012.4
2018-08-31T12:23:14.454Z,1012.3
2018-08-31T12:24:16.555Z,1012.4
2018-08-31T12:25:18.657Z,1012.3
2018-08-31T12:26:20.754Z,1012.4
2018-08-31T12:27:23.269Z,1012.4
2018-08-31T12:28:25.370Z,1012.4
2018-08-31T12:29:27.475Z,1012.4
2018-08-31T12:30:29.978Z,1012.5
2018-08-31T12:31:32.074Z,1012.4
2018-08-31T12:32:34.192Z,1012.4
2018-08-31T12:33:36.302Z,1012.4
2018-08-31T12:34:38.415Z,1012.3
2018-08-31T12:35:40.514Z,1012.4
2018-08-31T12:36:42.926Z,1012.4
2018-08-31T12:37:45.029Z,1012.3
2018-08-31T12:38:47.132Z,1012.3
2018-08-31T12:39:49.254Z,1012.4
2018-08-31T12:40:51.352Z,1012.4
2018-08-31T12:41:53.457Z,1012.4
2018-08-31T12:42:55.569Z,1012.3
2018-08-31T12:43:58.507Z,1012.3
2018-08-31T12:45:00.564Z,1012.3
2018-08-31T12:46:02.974Z,1012.3
2018-08-31T12:47:05.076Z,1012.3
2018-08-31T12:48:07.182Z,1012.3
2018-08-31T12:49:09.306Z,1012.3
2018-08-31T12:50:11.705Z,1012.3
2018-08-31T12:51:13.808Z,1012.3
2018-08-31T12:52:15.925Z,1012.3
2018-08-31T12:53:18.618Z,1012.3
2018-08-31T12:54:21.033Z,1012.3
2018-08-31T12:55:23.146Z,1012.3
2018-08-31T12:56:25.240Z,1012.4
2018-08-31T12:57:27.353Z,1012.3
2018-08-31T12:58:29.854Z,1012.3
2018-08-31T12:59:32.549Z,1012.3
2018-08-31T13:00:34.647Z,1012.4
2018-08-31T13:01:36.765Z,1012.3
2018-08-31T13:02:38.875Z,1012.3
2018-08-31T13:03:40.998Z,1012.3
2018-08-31T13:04:43.138Z,1012.3
2018-08-31T13:05:45.539Z,1012.3
2018-08-31T13:06:47.957Z,1012.3
2018-08-31T13:07:50.049Z,1012.3
2018-08-31T13:08:52.540Z,1012.3
2018-08-31T13:09:54.654Z,1012.3
2018-08-31T13:10:56.879Z,1012.4
2018-08-31T13:11:59.259Z,1012.4
2018-08-31T13:13:01.386Z,1012.3
2018-08-31T13:14:03.480Z,1012.3